Douglass, Kansas
Current Conditions -  °F | °C
As of 1:58 PM on Saturday 25 Oct 2014 (Local Time) from KIAB Reporting Station
Clear Clear  
Wind Chill: 88°   Ceiling: Unl
Heat Index: 88°   Visibility: 10mi
Dew Point: 58°   Wind: 8mph
Humidity: 36%   Direction: 160°SSE
Pressure: 30.04"   Gusts: NA
Location:  37.52°N, 97.01°W
Report Text: KIAB 251858Z AUTO 16007KT 10SM CLR 31/14 A3004 RMK AO2 SLP163 T03100143
Loading
Personal Weather Stations






























Interactive Weather Map
Tropical Storm Tracking
New forecast layout! Learn more

10-Day Weather Forecast

Advertisements
Track Severe Weather on mobile